x

Grays Reef - 40 Nm Southeast Of Savannah, Ga (41008) Wave Buoy

8:50am - Sun 28th Dec 2014 All times are EST. -5 hours from GMT.

  • Sig Wave height 3.0ft
  • Swell Direction
  • Peak Period 15s
  • Average Period 7s
  • Wind
    7mph
  • Sea Temp 58°f
  • Air Temp 62°f
  • Sea Pressure 1021mb
  • Grays Reef - 40 Nm Southeast Of Savannah, Ga
  • Grays Reef - 40 Nm Southeast Of Savannah, Ga

More Historic Weather Station data

Upgrade to MSW Pro to gain access to the past 30 days of data for over 8000 Wavebouys and Weather Stations around the globe.

Join Pro

Comparision Forecast

View Surf forecast
   
Sun 12/28 8:50am 3ft 15s 7s 7
mph
1021mb 58f 62f
7:50am 3.5ft 15s 8s 2 4 mph 1021mb 58f 61f
6:50am 3ft 16s 8s 4
mph
1020.3mb 58f 61f
5:50am 2.5ft 16s 7s 4 7 mph 1019.9mb 59f 61f
4:50am 3ft 16s 8s 2 4 mph 1020.2mb 59f 60f
3:50am 2.5ft 17s 7s 2 4 mph 1020.8mb 59f 60f
2:50am 2.5ft 16s 6s 4
mph
1021mb 59f 60f
1:50am 2.5ft 17s 6s 4 7 mph 1021.4mb 59f 60f
12:50am 2.5ft 17s 5s 2 4 mph 1022.1mb 59f 60f
Sat 12/27 11:50pm 2.5ft 17s 5s 4 7 mph 1022.7mb 59f 60f
10:50pm 2.5ft 16s 5s 7 9 mph 1023.4mb 59f 60f
9:50pm 2.5ft 17s 5s 7
mph
1023.9mb 59f 60f
8:50pm 2.5ft 16s 5s 7 9 mph 1023.9mb 59f 60f
7:50pm 2.5ft 17s 5s 7
mph
1024.2mb 59f 60f
6:50pm 2.5ft 13s 5s 9
mph
1023.7mb 59f 61f
5:50pm 2ft 12s 4s 11
mph
1023.1mb 59f 61f
4:50pm 2ft 13s 4s 11 13 mph 1023mb 59f 61f
3:50pm 2.5ft 13s 4s 13 16 mph 1023mb 59f 61f
2:50pm 2ft 5s 4s 13 16 mph 1023.1mb 59f 60f
1:50pm 2.5ft 13s 4s 13 16 mph 1023.4mb 59f 60f
12:50pm 2.5ft 13s 4s 13 16 mph 1024.4mb 59f 59f
11:50am 2.5ft 5s 5s 11 13 mph 1025.6mb 59f 59f
10:50am 2.5ft 5s 4s 9 11 mph 1026.3mb 59f 60f
9:50am 2.5ft 5s 4s 9 11 mph 1026.3mb 59f 60f
8:50am 2.5ft 5s 4s 9 11 mph 1025.9mb 59f 61f
7:50am 2.5ft 5s 4s 11
mph
1025.5mb 59f 60f
5:50am 2.5ft 5s 4s 13 16 mph 1024.3mb 58f 59f
4:50am 2ft 4s 4s 13 16 mph 1024mb 58f 59f
3:50am 2ft 7s 4s 13 16 mph 1024mb 58f 59f
2:50am 2ft 5s 4s 9 13 mph 1024.4mb 58f 59f
1:50am 2ft 9s 5s 11 13 mph 1024.6mb 58f 59f
12:50am 2.5ft 8s 4s 11 13 mph 1024.7mb 59f 59f
Fri 12/26 11:50pm 2.5ft 4s 4s 11 13 mph 1025.1mb 59f 59f
10:50pm 2.5ft 4s 4s 13
mph
1025.3mb 59f 59f
9:50pm 2.5ft 4s 4s 13 16 mph 1025.5mb 59f 59f
8:50pm 2.5ft 4s 4s 11 13 mph 1025.5mb 59f 59f
7:50pm 2.5ft 4s 4s 13 16 mph 1025.3mb 58f 59f
6:50pm 2.5ft 4s 4s 13 18 mph 1025.1mb 58f 58f
5:50pm 2.5ft 4s 4s 16
mph
1024.9mb 58f 58f
4:50pm 2.5ft 4s 4s 13 16 mph 1024.7mb 58f 58f
3:50pm 2.5ft 3s 4s 16 18 mph 1024.2mb 58f 58f
2:50pm 2.5ft 4s 4s 16 18 mph 1024.5mb 59f 57f
1:50pm 2.5ft 4s 4s 16 18 mph 1024.5mb 59f 57f
12:50pm 2.5ft 4s 4s 16 18 mph 1025.2mb 59f 57f
11:50am 2ft 3s 4s 16 18 mph 1026.1mb 59f 57f
10:50am 1.6ft 8s 4s 16 18 mph 1026.2mb 59f 56f
9:50am 1.6ft 7s 4s 11 16 mph 1026.4mb 58f 56f
8:50am 1.6ft 7s 4s 11 13 mph 1025.5mb 58f 56f
7:50am 1.6ft 8s 5s 9 11 mph 1025.4mb 58f 56f
6:50am 1.6ft 7s 5s 9 11 mph 1024.9mb 58f 56f
5:50am 1.6ft 9s 4s 9
mph
1024.8mb 58f 56f
4:50am 1.3ft 8s 4s 9 11 mph 1024.5mb 58f 56f
3:50am 1.3ft 8s 4s 11 13 mph 1024.5mb 58f 56f
2:50am 1.3ft 9s 4s 11 13 mph 1024.5mb 58f 56f
1:50am 1.3ft 9s 4s 11 13 mph 1024.2mb 58f 56f
12:50am 1.3ft 10s 4s 11
mph
1024.2mb 58f 56f
Thu 12/25 11:50pm 1.3ft 3s 4s 9 11 mph 1024.4mb 58f 56f
10:50pm 1.6ft 3s 4s 11 13 mph 1024.5mb 58f 56f
9:50pm 1.6ft 9s 4s 13 16 mph 1024.3mb 58f 56f
8:50pm 1.3ft 9s 4s 13 16 mph 1024.1mb 58f 57f
7:50pm 1ft 9s 5s 11 13 mph 1023.9mb 58f 57f
6:50pm 1.3ft 9s 5s 9 11 mph 1023.1mb 58f 57f
5:50pm 1.3ft 8s 4s 4 7 mph 1022.5mb 58f 55f
4:50pm 1.3ft 10s 4s 4
mph
1021.9mb 58f 55f
3:50pm 1.3ft 3s 3s 9 11 mph 1021.4mb 58f 54f
2:50pm 2ft 3s 3s 11 16 mph 1021.4mb 58f 53f
1:50pm 2ft 3s 3s 16 18 mph 1021.3mb 58f 52f
12:50pm 2.5ft 3s 3s 16 18 mph 1021.5mb 59f 53f
11:50am 2.5ft 3s 3s 18 22 mph 1022.3mb 59f 53f
10:50am 2.5ft 4s 4s 18 22 mph 1021.4mb 59f 53f
9:50am 3ft 4s 4s 18 27 mph 1021.4mb 59f 54f
8:50am 3ft 4s 4s 18 20 mph 1020.2mb 59f 54f
7:50am 3.5ft 4s 4s 20 22 mph 1018.9mb 59f 55f
6:50am 3.5ft 4s 4s 20 25 mph 1017.9mb 59f 55f
5:50am 4.5ft 5s 4s 20 25 mph 1016.6mb 59f 56f
4:50am 4ft 4s 4s 22 27 mph 1015.6mb 59f 56f
3:50am 4.5ft 4s 4s 20 27 mph 1014.3mb 59f 57f
2:50am 3.5ft 6s 4s 22 29 mph 1013.5mb 59f 59f
1:50am 3.5ft 7s 5s 20 25 mph 1011.7mb 59f 61f
12:50am 4ft 7s 5s 18 20 mph 1011.1mb 59f 62f
Wed 12/24 11:50pm 4ft 7s 5s 13 18 mph 1010.7mb 59f 62f
10:50pm 4ft 7s 5s 18 20 mph 1011.2mb 59f 62f
9:50pm 4.5ft 7s 5s 13 16 mph 1009.6mb 59f 62f
8:50pm 4.5ft 7s 5s 13
mph
1009.5mb 59f 63f
7:50pm 5ft 7s 5s 11 13 mph 1009.3mb 59f 63f
6:50pm 4.5ft 7s 5s 11 13 mph 1008.9mb 59f 62f
5:50pm 4.5ft 7s 5s 11 13 mph 1008.6mb 59f 63f
4:50pm 5ft 7s 5s 9 11 mph 1008.8mb 59f 63f
3:50pm 5ft 7s 5s 16 18 mph 1008.3mb 59f 64f
2:50pm 5ft 8s 5s 20 22 mph 1007.7mb 59f 64f